createdAt,value
2022-11-17T00:00:14.591Z,99352.34
2022-11-17T00:03:17.188Z,99352.22
2022-11-17T00:06:20.990Z,99350.28
2022-11-17T00:09:24.011Z,99350.28
2022-11-17T00:12:45.420Z,99348.78
2022-11-17T00:15:48.520Z,99350.03
2022-11-17T00:19:09.711Z,99345.31
2022-11-17T00:22:12.485Z,99355.97
2022-11-17T00:25:15.182Z,99368.72
2022-11-17T00:28:18.128Z,99373.66
2022-11-17T00:31:40.571Z,99380.31
2022-11-17T00:34:43.244Z,99372.22
2022-11-17T00:38:04.897Z,99373.03
2022-11-17T00:41:07.638Z,99384.91
2022-11-17T00:44:10.674Z,99389.78
2022-11-17T00:47:13.422Z,99383.88
2022-11-17T00:50:16.224Z,99387.00
2022-11-17T00:53:18.952Z,99395.56
2022-11-17T00:56:21.863Z,99395.72
2022-11-17T00:59:24.549Z,99397.41
2022-11-17T01:02:27.522Z,99394.78
2022-11-17T01:05:33.183Z,99401.16
2022-11-17T01:08:36.597Z,99404.06
2022-11-17T01:11:39.514Z,99401.38
2022-11-17T01:14:42.307Z,99404.09
2022-11-17T01:17:45.011Z,99397.91
2022-11-17T01:20:47.677Z,99393.72
2022-11-17T01:23:52.239Z,99393.94
2022-11-17T01:26:54.922Z,99387.25
2022-11-17T01:29:57.624Z,99392.03
2022-11-17T01:33:00.368Z,99380.72
2022-11-17T01:36:11.323Z,99383.75
2022-11-17T01:39:14.085Z,99387.19
2022-11-17T01:42:22.628Z,99382.56
2022-11-17T01:45:26.925Z,99392.59
2022-11-17T01:48:29.569Z,99385.41
2022-11-17T01:51:36.847Z,99387.53
2022-11-17T01:54:42.485Z,99386.63
2022-11-17T01:57:51.577Z,99380.22
2022-11-17T02:00:55.557Z,99391.94
2022-11-17T02:03:58.308Z,99382.34
2022-11-17T02:07:13.195Z,99387.75
2022-11-17T02:10:16.508Z,99377.53
2022-11-17T02:13:22.739Z,99373.97
2022-11-17T02:16:25.506Z,99389.84
2022-11-17T02:19:35.622Z,99388.28
2022-11-17T02:22:53.508Z,99389.97
2022-11-17T02:26:42.092Z,99390.00
2022-11-17T02:30:07.528Z,99405.84
2022-11-17T02:33:25.101Z,99401.72
2022-11-17T02:36:56.581Z,99413.91
2022-11-17T02:40:05.379Z,99415.53
2022-11-17T02:43:32.959Z,99405.81
2022-11-17T02:46:53.962Z,99392.31
2022-11-17T02:50:02.102Z,99386.97
2022-11-17T02:53:06.159Z,99394.63
2022-11-17T02:56:08.970Z,99396.66
2022-11-17T02:59:15.795Z,99403.38
2022-11-17T03:02:33.272Z,99392.03
2022-11-17T03:05:48.330Z,99390.44
2022-11-17T03:09:10.196Z,99391.28
2022-11-17T03:12:34.981Z,99386.25
2022-11-17T03:15:46.913Z,99399.63
2022-11-17T03:19:01.290Z,99384.63
2022-11-17T03:22:07.011Z,99390.53
2022-11-17T03:25:15.498Z,99390.91
2022-11-17T03:28:21.392Z,99386.25
2022-11-17T03:31:26.691Z,99384.44
2022-11-17T03:34:35.961Z,99376.78
2022-11-17T03:37:45.048Z,99381.44
2022-11-17T03:40:50.538Z,99392.75
2022-11-17T03:43:56.475Z,99394.16
2022-11-17T03:47:02.087Z,99396.00
2022-11-17T03:50:25.302Z,99403.88
2022-11-17T03:53:28.122Z,99404.47
2022-11-17T03:57:12.346Z,99404.25
2022-11-17T04:00:16.763Z,99411.34
2022-11-17T04:03:22.578Z,99405.47
2022-11-17T04:06:25.380Z,99397.00
2022-11-17T04:09:28.205Z,99383.84
2022-11-17T04:12:49.721Z,99385.69
2022-11-17T04:15:59.250Z,99402.47
2022-11-17T04:19:02.365Z,99414.59
2022-11-17T04:22:05.094Z,99428.16
2022-11-17T04:25:08.335Z,99420.88
2022-11-17T04:28:29.648Z,99415.34
2022-11-17T04:31:32.493Z,99424.06
2022-11-17T04:34:35.111Z,99434.38
2022-11-17T04:37:38.139Z,99441.22
2022-11-17T04:41:01.074Z,99440.41
2022-11-17T04:44:05.373Z,99440.22
2022-11-17T04:47:08.203Z,99446.91
2022-11-17T04:50:10.857Z,99438.41
2022-11-17T04:53:13.475Z,99438.41
2022-11-17T04:56:16.380Z,99446.50
2022-11-17T04:59:19.585Z,99456.16
2022-11-17T05:02:22.303Z,99455.81
2022-11-17T05:05:25.075Z,99462.28
2022-11-17T05:08:27.772Z,99458.41
2022-11-17T05:11:49.981Z,99459.00
2022-11-17T05:14:52.593Z,99462.47
2022-11-17T05:17:55.418Z,99462.28
2022-11-17T05:21:05.697Z,99459.28
2022-11-17T05:24:09.135Z,99468.38
2022-11-17T05:27:11.774Z,99469.41
2022-11-17T05:30:15.475Z,99472.84
2022-11-17T05:33:18.147Z,99470.41
2022-11-17T05:36:22.725Z,99466.16
2022-11-17T05:39:25.404Z,99468.78
2022-11-17T05:42:28.128Z,99482.34
2022-11-17T05:45:30.796Z,99484.13
2022-11-17T05:48:36.361Z,99498.50
2022-11-17T05:51:39.016Z,99495.09
2022-11-17T05:54:41.731Z,99499.72
2022-11-17T05:57:44.950Z,99497.50
2022-11-17T06:00:47.889Z,99495.69
2022-11-17T06:03:54.263Z,99506.16
2022-11-17T06:07:01.970Z,99510.41
2022-11-17T06:10:05.177Z,99506.34
2022-11-17T06:13:07.871Z,99515.81
2022-11-17T06:16:14.318Z,99518.66
2022-11-17T06:19:25.000Z,99520.25
2022-11-17T06:22:28.188Z,99516.19
2022-11-17T06:25:34.050Z,99522.66
2022-11-17T06:28:39.519Z,99528.69
2022-11-17T06:31:45.134Z,99531.56
2022-11-17T06:34:55.226Z,99532.91
2022-11-17T06:37:58.211Z,99539.44
2022-11-17T06:41:01.043Z,99537.81
2022-11-17T06:44:04.109Z,99549.00
2022-11-17T06:47:06.878Z,99544.66
2022-11-17T06:50:10.402Z,99557.16
2022-11-17T06:53:13.170Z,99556.34
2022-11-17T06:56:17.645Z,99556.91
2022-11-17T06:59:21.533Z,99563.44
2022-11-17T07:02:26.370Z,99565.91
2022-11-17T07:05:34.114Z,99566.72
2022-11-17T07:08:38.529Z,99556.34
2022-11-17T07:11:42.306Z,99562.00
2022-11-17T07:14:45.340Z,99571.34
2022-11-17T07:17:48.474Z,99568.91
2022-11-17T07:20:51.714Z,99568.03
2022-11-17T07:23:54.695Z,99570.47
2022-11-17T07:26:58.907Z,99574.28
2022-11-17T07:30:07.299Z,99564.47
2022-11-17T07:33:10.253Z,99562.91
2022-11-17T07:36:15.392Z,99557.28
2022-11-17T07:39:21.514Z,99542.69
2022-11-17T07:42:25.249Z,99536.47
2022-11-17T07:45:32.253Z,99540.91
2022-11-17T07:48:35.783Z,99538.78
2022-11-17T07:51:38.836Z,99546.84
2022-11-17T07:54:41.601Z,99537.97
2022-11-17T07:57:44.486Z,99543.06
2022-11-17T08:00:48.086Z,99547.69
2022-11-17T08:03:55.558Z,99551.94
2022-11-17T08:07:07.136Z,99548.13
2022-11-17T08:10:10.553Z,99528.22
2022-11-17T08:13:14.371Z,99528.78
2022-11-17T08:16:17.464Z,99522.41
2022-11-17T08:19:21.067Z,99518.59
2022-11-17T08:22:24.287Z,99524.56
2022-11-17T08:25:27.481Z,99539.19
2022-11-17T08:28:30.713Z,99530.75
2022-11-17T08:31:35.182Z,99527.66
2022-11-17T08:34:38.414Z,99533.22
2022-11-17T08:37:41.841Z,99529.66
2022-11-17T08:40:48.615Z,99528.72
2022-11-17T08:43:51.977Z,99535.38
2022-11-17T08:46:54.853Z,99528.38
2022-11-17T08:49:58.028Z,99533.19
2022-11-17T08:53:00.869Z,99528.72
2022-11-17T08:56:13.715Z,99527.38
2022-11-17T08:59:17.895Z,99530.56
2022-11-17T09:02:30.424Z,99534.66
2022-11-17T09:05:53.783Z,99540.72
2022-11-17T09:08:56.980Z,99532.91
2022-11-17T09:12:01.664Z,99532.41
2022-11-17T09:15:05.884Z,99529.19
2022-11-17T09:18:08.673Z,99526.72
2022-11-17T09:21:16.635Z,99534.03
2022-11-17T09:24:19.351Z,99543.66
2022-11-17T09:27:22.053Z,99539.66
2022-11-17T09:30:31.651Z,99548.59
2022-11-17T09:33:35.443Z,99541.47
2022-11-17T09:36:38.803Z,99532.00
2022-11-17T09:43:26.516Z,99513.66
2022-11-17T09:46:44.299Z,99499.78
2022-11-17T09:49:59.052Z,99500.63
2022-11-17T09:53:22.096Z,99501.22
2022-11-17T09:56:28.040Z,99495.22
2022-11-17T09:59:33.706Z,99497.75
2022-11-17T10:02:36.692Z,99500.81
2022-11-17T10:05:39.797Z,99498.38
2022-11-17T10:08:54.816Z,99488.97
2022-11-17T10:12:13.585Z,99486.41
2022-11-17T10:15:46.596Z,99477.03
2022-11-17T10:18:50.649Z,99467.97
2022-11-17T10:22:13.095Z,99479.75
2022-11-17T10:25:37.177Z,99478.72
2022-11-17T10:28:40.805Z,99471.03
2022-11-17T10:31:45.649Z,99466.81
2022-11-17T10:34:50.740Z,99464.91
2022-11-17T10:37:57.511Z,99459.41
2022-11-17T10:41:03.293Z,99460.34
2022-11-17T10:44:59.294Z,99453.34
2022-11-17T10:48:24.724Z,99453.06
2022-11-17T10:51:33.115Z,99449.78
2022-11-17T10:54:36.538Z,99458.53
2022-11-17T10:57:46.606Z,99450.34
2022-11-17T11:00:59.292Z,99457.75
2022-11-17T11:04:07.916Z,99444.56
2022-11-17T11:07:24.591Z,99454.91
2022-11-17T11:10:34.561Z,99453.13
2022-11-17T11:14:00.282Z,99450.81
2022-11-17T11:17:13.201Z,99457.34
2022-11-17T11:20:19.202Z,99445.63
2022-11-17T11:23:52.305Z,99459.13
2022-11-17T11:27:39.141Z,99448.78
2022-11-17T11:31:59.704Z,99437.88
2022-11-17T11:35:42.344Z,99448.38
2022-11-17T11:39:01.004Z,99441.97
2022-11-17T11:42:37.491Z,99440.84
2022-11-17T11:45:59.811Z,99437.56
2022-11-17T11:49:22.307Z,99430.31
2022-11-17T11:52:31.002Z,99440.41
2022-11-17T11:55:37.830Z,99433.50
2022-11-17T11:59:01.516Z,99431.91
2022-11-17T12:02:25.085Z,99430.38
2022-11-17T12:06:21.773Z,99420.81
2022-11-17T12:09:30.430Z,99421.59
2022-11-17T12:12:41.192Z,99430.34
2022-11-17T12:15:44.073Z,99434.28
2022-11-17T12:18:46.982Z,99419.28
2022-11-17T12:21:55.637Z,99423.75
2022-11-17T12:25:05.804Z,99425.41
2022-11-17T12:28:35.943Z,99420.94
2022-11-17T12:31:44.095Z,99422.94
2022-11-17T12:35:25.291Z,99424.47
2022-11-17T12:38:31.420Z,99420.66
2022-11-17T12:41:49.705Z,99422.78
2022-11-17T12:44:58.364Z,99424.06
2022-11-17T12:48:26.863Z,99418.94
2022-11-17T12:51:44.263Z,99415.47
2022-11-17T12:55:01.988Z,99413.59
2022-11-17T12:58:18.594Z,99420.84
2022-11-17T13:02:09.829Z,99427.44
2022-11-17T13:05:19.051Z,99434.34
2022-11-17T13:08:24.077Z,99433.25
2022-11-17T13:11:27.651Z,99428.06
2022-11-17T13:14:32.186Z,99427.03
2022-11-17T13:17:42.276Z,99418.66
2022-11-17T13:20:48.727Z,99419.06
2022-11-17T13:23:52.679Z,99431.69
2022-11-17T13:27:00.669Z,99436.41
2022-11-17T13:30:27.861Z,99431.03
2022-11-17T13:33:40.822Z,99434.03
2022-11-17T13:36:57.241Z,99428.34
2022-11-17T13:40:01.630Z,99424.94
2022-11-17T13:43:06.603Z,99432.78
2022-11-17T13:50:55.683Z,99435.28
2022-11-17T13:54:03.187Z,99439.28
2022-11-17T13:58:26.683Z,99436.16
2022-11-17T14:01:31.555Z,99437.50
2022-11-17T14:04:34.447Z,99432.47
2022-11-17T14:07:39.760Z,99438.75
2022-11-17T14:10:42.861Z,99436.38
2022-11-17T14:13:49.693Z,99438.53
2022-11-17T14:16:53.462Z,99438.16
2022-11-17T14:20:36.742Z,99450.28
2022-11-17T14:23:40.646Z,99451.53
2022-11-17T14:26:44.924Z,99462.19
2022-11-17T14:29:47.739Z,99447.56
2022-11-17T14:32:50.627Z,99455.91
2022-11-17T14:35:56.264Z,99447.22
2022-11-17T14:39:00.725Z,99438.69
2022-11-17T14:42:03.617Z,99443.31
2022-11-17T14:45:06.815Z,99455.44
2022-11-17T14:48:17.578Z,99458.09
2022-11-17T14:51:22.187Z,99452.97
2022-11-17T14:54:25.836Z,99458.53
2022-11-17T14:57:28.946Z,99462.47
2022-11-17T15:00:32.027Z,99468.28
2022-11-17T15:03:34.851Z,99466.66
2022-11-17T15:06:38.022Z,99467.53
2022-11-17T15:09:41.091Z,99471.09
2022-11-17T15:12:43.892Z,99478.50
2022-11-17T15:15:46.668Z,99479.03
2022-11-17T15:18:49.543Z,99486.09
2022-11-17T15:21:52.986Z,99491.66
2022-11-17T15:24:55.841Z,99495.44
2022-11-17T15:27:58.657Z,99503.97
2022-11-17T15:31:20.645Z,99502.25
2022-11-17T15:34:23.482Z,99492.81
2022-11-17T15:37:26.244Z,99499.50
2022-11-17T15:40:29.296Z,99512.13
2022-11-17T15:43:35.134Z,99524.56
2022-11-17T15:46:41.578Z,99522.81
2022-11-17T15:49:47.156Z,99505.63
2022-11-17T15:53:03.453Z,99506.88
2022-11-17T15:56:37.361Z,99510.19
2022-11-17T15:59:40.157Z,99509.13
2022-11-17T16:02:42.890Z,99503.56
2022-11-17T16:05:45.702Z,99503.66
2022-11-17T16:08:49.241Z,99508.00
2022-11-17T16:11:52.101Z,99497.63
2022-11-17T16:14:54.852Z,99502.22
2022-11-17T16:17:57.759Z,99504.03
2022-11-17T16:21:08.691Z,99498.94
2022-11-17T16:24:12.108Z,99506.13
2022-11-17T16:27:14.801Z,99508.56
2022-11-17T16:30:17.791Z,99521.84
2022-11-17T16:33:20.673Z,99519.06
2022-11-17T16:36:29.995Z,99505.19
2022-11-17T16:39:35.549Z,99496.59
2022-11-17T16:42:44.170Z,99489.81
2022-11-17T16:45:46.930Z,99493.84
2022-11-17T16:48:50.276Z,99494.50
2022-11-17T16:51:56.686Z,99495.81
2022-11-17T16:55:04.537Z,99491.66
2022-11-17T16:58:09.772Z,99492.81
2022-11-17T17:01:15.315Z,99488.25
2022-11-17T17:04:18.088Z,99482.28
2022-11-17T17:07:21.144Z,99484.41
2022-11-17T17:10:24.956Z,99490.09
2022-11-17T17:13:28.044Z,99495.66
2022-11-17T17:16:33.802Z,99486.78
2022-11-17T17:19:36.759Z,99499.16
2022-11-17T17:22:39.839Z,99503.44
2022-11-17T17:25:42.615Z,99490.34
2022-11-17T17:28:47.363Z,99487.44
2022-11-17T17:31:50.098Z,99501.13
2022-11-17T17:34:53.555Z,99490.75
2022-11-17T17:37:56.851Z,99493.63
2022-11-17T17:41:10.028Z,99493.00
2022-11-17T17:44:18.176Z,99496.19
2022-11-17T17:47:21.550Z,99488.78
2022-11-17T17:50:29.018Z,99488.91
2022-11-17T17:53:32.095Z,99495.63
2022-11-17T17:56:35.113Z,99494.66
2022-11-17T17:59:38.071Z,99492.25
2022-11-17T18:02:41.031Z,99494.81
2022-11-17T18:05:44.536Z,99504.63
2022-11-17T18:08:48.051Z,99519.50
2022-11-17T18:11:51.384Z,99512.41
2022-11-17T18:14:54.463Z,99512.97
2022-11-17T18:17:57.422Z,99511.28
2022-11-17T18:21:09.888Z,99495.63
2022-11-17T18:24:13.303Z,99501.88
2022-11-17T18:27:16.357Z,99485.38
2022-11-17T18:30:19.400Z,99489.47
2022-11-17T18:33:22.566Z,99488.38
2022-11-17T18:36:27.171Z,99500.84
2022-11-17T18:39:31.728Z,99502.00
2022-11-17T18:42:34.403Z,99493.16
2022-11-17T18:45:38.690Z,99485.78
2022-11-17T18:48:44.368Z,99486.97
2022-11-17T18:51:47.476Z,99493.16
2022-11-17T18:54:50.570Z,99503.00
2022-11-17T18:57:53.552Z,99499.34
2022-11-17T19:00:58.111Z,99497.53
2022-11-17T19:04:04.799Z,99496.13
2022-11-17T19:07:07.782Z,99498.19
2022-11-17T19:10:10.867Z,99511.66
2022-11-17T19:13:13.795Z,99506.97
2022-11-17T19:16:21.860Z,99506.31
2022-11-17T19:19:26.191Z,99506.25
2022-11-17T19:22:29.894Z,99508.59
2022-11-17T19:25:35.577Z,99508.66
2022-11-17T19:28:39.492Z,99505.94
2022-11-17T19:31:42.415Z,99490.06
2022-11-17T19:34:45.629Z,99497.81
2022-11-17T19:37:48.723Z,99494.22
2022-11-17T19:40:51.799Z,99497.66
2022-11-17T19:43:56.544Z,99503.00
2022-11-17T19:46:59.541Z,99501.22
2022-11-17T19:50:02.448Z,99498.13
2022-11-17T19:53:05.516Z,99495.75
2022-11-17T19:56:08.719Z,99493.00
2022-11-17T19:59:16.007Z,99494.06
2022-11-17T20:02:19.690Z,99494.22
2022-11-17T20:05:22.622Z,99489.78
2022-11-17T20:08:25.588Z,99489.03
2022-11-17T20:11:28.993Z,99495.38
2022-11-17T20:14:32.118Z,99492.84
2022-11-17T20:17:35.427Z,99507.84
2022-11-17T20:20:38.505Z,99509.72
2022-11-17T20:23:42.085Z,99508.34
2022-11-17T20:26:46.416Z,99509.91
2022-11-17T20:29:49.445Z,99512.63
2022-11-17T20:32:52.377Z,99507.28
2022-11-17T20:35:55.459Z,99507.41
2022-11-17T20:39:00.883Z,99512.00
2022-11-17T20:42:03.930Z,99504.75
2022-11-17T20:45:07.430Z,99504.44
2022-11-17T20:48:10.291Z,99506.38
2022-11-17T20:51:16.937Z,99512.56
2022-11-17T20:54:20.027Z,99503.09
2022-11-17T20:57:22.919Z,99498.19
2022-11-17T21:00:25.877Z,99497.81
2022-11-17T21:03:28.974Z,99483.31
2022-11-17T21:06:32.268Z,99489.88
2022-11-17T21:09:35.464Z,99485.63
2022-11-17T21:12:38.779Z,99477.94
2022-11-17T21:15:41.723Z,99471.31
2022-11-17T21:18:46.872Z,99482.25
2022-11-17T21:21:54.179Z,99489.53
2022-11-17T21:24:57.191Z,99484.13
2022-11-17T21:28:00.035Z,99484.63
2022-11-17T21:31:14.601Z,99479.09
2022-11-17T21:34:17.754Z,99483.75
2022-11-17T21:37:20.922Z,99487.59
2022-11-17T21:40:24.307Z,99475.28
2022-11-17T21:43:26.944Z,99473.94
2022-11-17T21:46:32.464Z,99486.31
2022-11-17T21:49:35.207Z,99495.00
2022-11-17T21:52:38.028Z,99483.22
2022-11-17T21:55:40.849Z,99484.41
2022-11-17T21:58:43.674Z,99483.50
2022-11-17T22:01:46.430Z,99481.72
2022-11-17T22:04:49.145Z,99483.34
2022-11-17T22:07:51.814Z,99477.84
2022-11-17T22:10:54.519Z,99469.41
2022-11-17T22:13:57.732Z,99460.38
2022-11-17T22:17:01.630Z,99469.13
2022-11-17T22:20:05.000Z,99460.69
2022-11-17T22:23:07.802Z,99461.56
2022-11-17T22:26:10.867Z,99454.44
2022-11-17T22:29:17.283Z,99450.63
2022-11-17T22:32:20.701Z,99453.84
2022-11-17T22:35:23.456Z,99444.44
2022-11-17T22:38:29.446Z,99437.88
2022-11-17T22:41:32.342Z,99449.16
2022-11-17T22:44:35.168Z,99451.81
2022-11-17T22:47:37.900Z,99451.28
2022-11-17T22:50:40.849Z,99467.75
2022-11-17T22:53:43.645Z,99470.81
2022-11-17T22:56:46.373Z,99474.63
2022-11-17T22:59:49.143Z,99462.94
2022-11-17T23:02:51.950Z,99460.31
2022-11-17T23:05:54.797Z,99453.28
2022-11-17T23:08:58.500Z,99447.78
2022-11-17T23:12:01.206Z,99443.16
2022-11-17T23:15:04.383Z,99445.91
2022-11-17T23:18:07.224Z,99430.81
2022-11-17T23:21:10.768Z,99427.28
2022-11-17T23:24:14.868Z,99436.31
2022-11-17T23:27:17.743Z,99428.25
2022-11-17T23:30:20.525Z,99415.91
2022-11-17T23:33:23.150Z,99410.72
2022-11-17T23:36:25.899Z,99410.91
2022-11-17T23:39:29.019Z,99408.53
2022-11-17T23:42:32.824Z,99403.66
2022-11-17T23:45:36.148Z,99397.88
2022-11-17T23:48:39.196Z,99393.09
2022-11-17T23:51:42.323Z,99406.00
2022-11-17T23:54:45.094Z,99406.19
2022-11-17T23:57:47.854Z,99411.03
